createdAt,value
2022-12-18T00:00:48.984Z,96111.81
2022-12-18T00:03:16.315Z,96114.84
2022-12-18T00:05:50.302Z,96122.53
2022-12-18T00:08:17.041Z,96113.38
2022-12-18T00:10:44.054Z,96103.88
2022-12-18T00:13:11.022Z,96101.38
2022-12-18T00:15:38.310Z,96113.13
2022-12-18T00:18:05.561Z,96110.69
2022-12-18T00:20:36.345Z,96114.59
2022-12-18T00:23:02.782Z,96118.84
2022-12-18T00:25:29.345Z,96111.59
2022-12-18T00:27:55.979Z,96118.06
2022-12-18T00:30:22.481Z,96109.75
2022-12-18T00:32:48.951Z,96116.00
2022-12-18T00:35:15.450Z,96105.50
2022-12-18T00:37:41.901Z,96113.47
2022-12-18T00:40:08.699Z,96113.47
2022-12-18T00:42:54.890Z,96107.41
2022-12-18T00:45:21.409Z,96110.88
2022-12-18T00:47:47.893Z,96109.06
2022-12-18T00:50:14.405Z,96106.59
2022-12-18T00:52:40.997Z,96116.00
2022-12-18T00:55:07.873Z,96113.56
2022-12-18T00:57:34.446Z,96131.88
2022-12-18T01:00:00.945Z,96125.84
2022-12-18T01:02:27.781Z,96114.44
2022-12-18T01:04:54.435Z,96121.25
2022-12-18T01:07:20.914Z,96113.31
2022-12-18T01:09:47.390Z,96123.03
2022-12-18T01:12:13.895Z,96129.06
2022-12-18T01:14:40.353Z,96135.19
2022-12-18T01:17:07.543Z,96135.19
2022-12-18T01:19:34.715Z,96130.53
2022-12-18T01:22:01.189Z,96128.97
2022-12-18T01:24:27.877Z,96126.72
2022-12-18T01:26:54.357Z,96114.88
2022-12-18T01:29:20.799Z,96114.66
2022-12-18T01:31:47.340Z,96114.19
2022-12-18T01:34:13.781Z,96111.53
2022-12-18T01:36:40.218Z,96113.09
2022-12-18T01:39:08.786Z,96114.66
2022-12-18T01:41:54.524Z,96120.69
2022-12-18T01:44:39.441Z,96119.56
2022-12-18T01:47:06.677Z,96115.75
2022-12-18T01:49:33.124Z,96115.69
2022-12-18T01:51:59.599Z,96124.75
2022-12-18T01:54:26.043Z,96130.03
2022-12-18T01:56:52.486Z,96123.13
2022-12-18T01:59:19.038Z,96127.38
2022-12-18T02:01:47.912Z,96124.25
2022-12-18T02:04:24.935Z,96123.13
2022-12-18T02:06:55.151Z,96124.47
2022-12-18T02:09:31.130Z,96106.94
2022-12-18T02:12:01.593Z,96112.41
2022-12-18T02:14:55.006Z,96117.78
2022-12-18T02:17:23.902Z,96128.94
2022-12-18T02:19:50.649Z,96120.44
2022-12-18T02:22:35.919Z,96124.94
2022-12-18T02:25:13.977Z,96123.38
2022-12-18T02:27:42.238Z,96123.81
2022-12-18T02:30:09.358Z,96119.66
2022-12-18T02:32:38.586Z,96114.81
2022-12-18T02:35:06.653Z,96106.78
2022-12-18T02:37:35.280Z,96108.59
2022-12-18T02:40:03.368Z,96115.53
2022-12-18T02:42:30.009Z,96108.69
2022-12-18T02:44:56.721Z,96112.00
2022-12-18T02:47:25.129Z,96110.78
2022-12-18T02:49:58.121Z,96112.56
2022-12-18T02:52:36.596Z,96115.31
2022-12-18T02:55:15.219Z,96123.88
2022-12-18T02:57:46.949Z,96116.84
2022-12-18T03:00:24.079Z,96101.34
2022-12-18T03:03:00.105Z,96099.53
2022-12-18T03:05:37.206Z,96108.28
2022-12-18T03:08:09.505Z,96093.34
2022-12-18T03:10:39.470Z,96083.03
2022-12-18T03:13:08.510Z,96075.97
2022-12-18T03:15:38.510Z,96078.34
2022-12-18T03:18:08.777Z,96070.97
2022-12-18T03:20:36.140Z,96066.22
2022-12-18T03:23:09.297Z,96061.66
2022-12-18T03:25:38.371Z,96058.97
2022-12-18T03:28:06.981Z,96052.50
2022-12-18T03:30:34.729Z,96039.13
2022-12-18T03:33:08.893Z,96029.00
2022-12-18T03:35:38.574Z,96038.06
2022-12-18T03:38:05.145Z,96041.41
2022-12-18T03:40:36.341Z,96039.78
2022-12-18T03:43:17.797Z,96042.44
2022-12-18T03:45:48.483Z,96029.91
2022-12-18T03:48:20.777Z,96016.91
2022-12-18T03:50:47.596Z,96029.22
2022-12-18T03:53:26.197Z,96029.56
2022-12-18T03:55:52.957Z,96031.06
2022-12-18T03:58:21.991Z,96024.16
2022-12-18T04:00:50.833Z,96021.47
2022-12-18T04:03:22.598Z,96020.53
2022-12-18T04:05:53.548Z,96016.91
2022-12-18T04:08:20.734Z,96029.69
2022-12-18T04:10:47.198Z,96023.44
2022-12-18T04:13:13.739Z,96022.31
2022-12-18T04:15:40.891Z,96011.59
2022-12-18T04:18:07.437Z,96017.41
2022-12-18T04:20:34.710Z,96010.78
2022-12-18T04:23:01.164Z,96018.28
2022-12-18T04:25:29.622Z,96013.59
2022-12-18T04:27:57.958Z,96016.63
2022-12-18T04:30:24.414Z,96009.69
2022-12-18T04:32:53.089Z,96001.31
2022-12-18T04:35:21.554Z,95990.13
2022-12-18T04:37:48.012Z,95984.88
2022-12-18T04:40:14.492Z,95977.75
2022-12-18T04:42:41.659Z,95986.38
2022-12-18T04:45:08.869Z,95992.16
2022-12-18T04:47:35.324Z,95992.84
2022-12-18T04:50:01.838Z,95989.00
2022-12-18T04:52:28.805Z,95978.72
2022-12-18T04:54:55.240Z,95995.38
2022-12-18T04:57:21.773Z,95987.69
2022-12-18T04:59:48.235Z,95989.94
2022-12-18T05:02:14.865Z,95988.38
2022-12-18T05:04:41.500Z,95985.88
2022-12-18T05:07:08.028Z,95981.41
2022-12-18T05:09:34.813Z,95989.69
2022-12-18T05:12:01.322Z,95996.16
2022-12-18T05:14:30.214Z,95991.50
2022-12-18T05:17:01.014Z,95990.72
2022-12-18T05:19:27.889Z,95984.75
2022-12-18T05:21:54.411Z,95977.34
2022-12-18T05:24:20.869Z,95971.03
2022-12-18T05:26:47.469Z,95973.94
2022-12-18T05:29:14.263Z,95967.13
2022-12-18T05:31:41.003Z,95953.63
2022-12-18T05:34:09.632Z,95957.97
2022-12-18T05:36:37.191Z,95946.81
2022-12-18T05:39:03.669Z,95965.00
2022-12-18T05:41:30.993Z,95968.00
2022-12-18T05:43:57.512Z,95968.00
2022-12-18T05:46:25.373Z,95968.69
2022-12-18T05:48:52.145Z,95976.72
2022-12-18T05:51:20.115Z,95967.69
2022-12-18T05:53:47.019Z,95979.75
2022-12-18T05:56:15.754Z,95980.00
2022-12-18T05:58:42.536Z,95987.16
2022-12-18T06:01:09.178Z,95983.38
2022-12-18T06:03:35.655Z,95997.88
2022-12-18T06:06:02.927Z,95991.34
2022-12-18T06:08:29.575Z,95988.25
2022-12-18T06:10:56.081Z,95988.94
2022-12-18T06:13:24.787Z,95992.72
2022-12-18T06:15:51.329Z,96001.88
2022-12-18T06:18:18.503Z,95999.53
2022-12-18T06:20:44.979Z,95991.34
2022-12-18T06:23:11.547Z,95992.22
2022-12-18T06:25:38.653Z,95991.34
2022-12-18T06:28:05.174Z,95996.63
2022-12-18T06:30:36.973Z,95998.09
2022-12-18T06:33:05.421Z,96004.66
2022-12-18T06:35:34.838Z,95991.19
2022-12-18T06:38:02.466Z,95988.16
2022-12-18T06:40:30.869Z,95971.97
2022-12-18T06:42:59.523Z,95994.47
2022-12-18T06:45:26.062Z,95988.25
2022-12-18T06:47:52.609Z,95984.44
2022-12-18T06:50:19.053Z,95977.00
2022-12-18T06:52:45.530Z,95982.78
2022-12-18T06:55:12.461Z,95985.31
2022-12-18T06:57:39.477Z,95978.41
2022-12-18T07:00:06.869Z,95997.41
2022-12-18T07:02:33.500Z,95990.13
2022-12-18T07:05:00.155Z,95987.38
2022-12-18T07:07:26.648Z,95981.56
2022-12-18T07:09:53.101Z,95997.59
2022-12-18T07:12:19.714Z,95994.47
2022-12-18T07:14:46.154Z,95994.47
2022-12-18T07:17:12.736Z,95989.13
2022-12-18T07:19:39.954Z,95982.09
2022-12-18T07:22:06.426Z,95987.72
2022-12-18T07:24:33.878Z,95991.53
2022-12-18T07:27:00.805Z,95989.22
2022-12-18T07:29:29.502Z,95997.59
2022-12-18T07:31:56.040Z,95992.41
2022-12-18T07:34:22.555Z,95997.41
2022-12-18T07:36:49.019Z,96006.75
2022-12-18T07:39:15.545Z,96012.13
2022-12-18T07:41:47.496Z,95992.59
2022-12-18T07:44:14.177Z,96007.53
2022-12-18T07:46:40.768Z,96005.72
2022-12-18T07:49:07.281Z,96005.03
2022-12-18T07:51:33.797Z,96017.25
2022-12-18T07:54:00.231Z,96020.16
2022-12-18T07:56:28.658Z,96028.56
2022-12-18T07:58:56.270Z,96027.09
2022-12-18T08:01:22.871Z,96009.00
2022-12-18T08:03:50.067Z,96008.22
2022-12-18T08:06:19.085Z,96014.19
2022-12-18T08:08:45.567Z,96019.13
2022-12-18T08:11:12.001Z,96011.09
2022-12-18T08:13:38.907Z,96008.66
2022-12-18T08:16:06.914Z,96015.75
2022-12-18T08:18:34.854Z,96012.38
2022-12-18T08:21:16.019Z,96014.19
2022-12-18T08:23:43.716Z,96018.38
2022-12-18T08:26:11.706Z,96010.66
2022-12-18T08:28:38.545Z,96013.34
2022-12-18T08:31:05.187Z,95994.28
2022-12-18T08:33:32.174Z,95998.53
2022-12-18T08:36:02.158Z,96003.06
2022-12-18T08:38:29.005Z,96005.31
2022-12-18T08:41:15.814Z,96009.53
2022-12-18T08:44:01.614Z,95997.59
2022-12-18T08:46:32.438Z,95992.72
2022-12-18T08:48:59.045Z,95983.56
2022-12-18T08:51:25.539Z,95991.91
2022-12-18T08:53:51.985Z,96000.63
2022-12-18T08:56:18.470Z,95981.84
2022-12-18T08:58:45.320Z,95987.22
2022-12-18T09:01:12.983Z,95977.38
2022-12-18T09:03:40.183Z,95980.47
2022-12-18T09:06:07.256Z,95981.16
2022-12-18T09:08:35.367Z,95992.59
2022-12-18T09:11:01.943Z,95988.78
2022-12-18T09:13:30.235Z,95990.78
2022-12-18T09:15:57.136Z,96000.19
2022-12-18T09:18:25.618Z,96005.38
2022-12-18T09:20:54.014Z,96017.91
2022-12-18T09:23:21.504Z,96024.41
2022-12-18T09:25:48.616Z,96020.59
2022-12-18T09:28:17.541Z,96027.44
2022-12-18T09:30:46.240Z,96014.47
2022-12-18T09:33:12.948Z,96007.72
2022-12-18T09:35:39.899Z,96012.56
2022-12-18T09:38:06.865Z,96002.09
2022-12-18T09:40:40.930Z,96008.13
2022-12-18T09:43:08.445Z,95998.88
2022-12-18T09:45:47.178Z,95999.66
2022-12-18T09:48:33.741Z,95990.66
2022-12-18T09:51:04.282Z,95983.06
2022-12-18T09:53:34.149Z,95987.56
2022-12-18T09:56:01.575Z,95990.59
2022-12-18T09:58:39.480Z,95982.28
2022-12-18T10:01:25.110Z,95972.34
2022-12-18T10:03:52.933Z,95955.63
2022-12-18T10:06:31.237Z,95951.13
2022-12-18T10:08:58.082Z,95940.03
2022-12-18T10:11:50.409Z,95958.81
2022-12-18T10:14:23.091Z,95944.28
2022-12-18T10:16:53.018Z,95952.06
2022-12-18T10:19:29.820Z,95958.00
2022-12-18T10:22:11.730Z,95953.78
2022-12-18T10:24:56.968Z,95955.75
2022-12-18T10:27:26.810Z,95963.97
2022-12-18T10:29:55.905Z,95964.41
2022-12-18T10:32:23.907Z,95977.13
2022-12-18T10:34:59.834Z,95997.91
2022-12-18T10:37:28.591Z,96004.28
2022-12-18T10:40:09.422Z,96008.84
2022-12-18T10:42:36.229Z,96021.06
2022-12-18T10:45:05.362Z,96023.84
2022-12-18T10:47:33.786Z,96044.28
2022-12-18T10:50:00.270Z,96052.41
2022-12-18T10:52:27.170Z,96064.41
2022-12-18T10:54:59.748Z,96093.47
2022-12-18T10:57:32.075Z,96105.72
2022-12-18T11:00:00.009Z,96117.78
2022-12-18T11:02:28.812Z,96125.81
2022-12-18T11:04:55.511Z,96141.25
2022-12-18T11:07:22.046Z,96145.84
2022-12-18T11:10:07.437Z,96149.91
2022-12-18T11:12:33.963Z,96158.13
2022-12-18T11:15:01.094Z,96163.59
2022-12-18T11:17:27.726Z,96178.94
2022-12-18T11:19:59.646Z,96184.19
2022-12-18T11:22:33.581Z,96186.63
2022-12-18T11:25:32.728Z,96189.03
2022-12-18T11:28:00.003Z,96203.53
2022-12-18T11:30:37.467Z,96192.88
2022-12-18T11:33:20.691Z,96203.63
2022-12-18T11:35:53.369Z,96196.69
2022-12-18T11:38:25.220Z,96215.06
2022-12-18T11:40:57.394Z,96219.00
2022-12-18T11:43:23.836Z,96218.31
2022-12-18T11:45:50.270Z,96240.50
2022-12-18T11:48:19.703Z,96254.28
2022-12-18T11:50:46.115Z,96263.44
2022-12-18T11:53:13.085Z,96254.66
2022-12-18T11:55:52.126Z,96262.19
2022-12-18T11:58:22.472Z,96263.06
2022-12-18T12:00:58.787Z,96273.59
2022-12-18T12:03:40.161Z,96301.59
2022-12-18T12:06:29.542Z,96316.13
2022-12-18T12:09:04.239Z,96335.22
2022-12-18T12:11:33.737Z,96340.94
2022-12-18T12:14:02.859Z,96355.66
2022-12-18T12:16:29.346Z,96359.56
2022-12-18T12:19:03.958Z,96361.56
2022-12-18T12:21:33.400Z,96359.91
2022-12-18T12:24:18.772Z,96374.66
2022-12-18T12:26:57.704Z,96373.66
2022-12-18T12:29:44.746Z,96415.34
2022-12-18T12:32:25.376Z,96416.09
2022-12-18T12:35:11.247Z,96425.16
2022-12-18T12:37:52.012Z,96413.13
2022-12-18T12:40:50.245Z,96431.03
2022-12-18T12:43:18.286Z,96451.47
2022-12-18T12:45:51.802Z,96432.88
2022-12-18T12:48:21.146Z,96433.72
2022-12-18T12:50:49.202Z,96435.03
2022-12-18T12:53:22.604Z,96458.41
2022-12-18T12:55:49.844Z,96477.28
2022-12-18T12:58:24.546Z,96471.13
2022-12-18T13:00:58.134Z,96493.75
2022-12-18T13:03:43.417Z,96487.03
2022-12-18T13:06:17.946Z,96487.47
2022-12-18T13:08:58.474Z,96502.22
2022-12-18T13:11:59.343Z,96505.13
2022-12-18T13:14:30.169Z,96509.84
2022-12-18T13:17:17.968Z,96517.41
2022-12-18T13:19:45.122Z,96531.16
2022-12-18T13:22:24.926Z,96510.47
2022-12-18T13:24:51.850Z,96513.63
2022-12-18T13:27:37.454Z,96529.25
2022-12-18T13:30:24.019Z,96515.19
2022-12-18T13:33:10.456Z,96521.66
2022-12-18T13:35:41.400Z,96550.38
2022-12-18T13:38:21.893Z,96546.97
2022-12-18T13:40:48.384Z,96539.31
2022-12-18T13:43:20.635Z,96558.59
2022-12-18T13:46:05.373Z,96552.44
2022-12-18T13:48:34.754Z,96540.88
2022-12-18T13:51:04.351Z,96558.25
2022-12-18T13:53:34.190Z,96559.31
2022-12-18T13:56:00.866Z,96577.28
2022-12-18T13:58:27.371Z,96553.78
2022-12-18T14:00:53.881Z,96568.53
2022-12-18T14:03:22.848Z,96570.50
2022-12-18T14:05:54.514Z,96570.53
2022-12-18T14:08:21.577Z,96576.69
2022-12-18T14:10:50.193Z,96589.25
2022-12-18T14:13:20.898Z,96601.97
2022-12-18T14:15:49.017Z,96595.53
2022-12-18T14:18:17.028Z,96614.63
2022-12-18T14:20:52.120Z,96627.19
2022-12-18T14:23:48.378Z,96625.41
2022-12-18T14:26:20.917Z,96633.72
2022-12-18T14:28:47.782Z,96644.72
2022-12-18T14:31:24.849Z,96653.44
2022-12-18T14:33:51.802Z,96651.75
2022-12-18T14:36:23.416Z,96654.78
2022-12-18T14:38:54.839Z,96673.31
2022-12-18T14:41:22.078Z,96672.09
2022-12-18T14:43:49.806Z,96665.94
2022-12-18T14:46:35.124Z,96689.28
2022-12-18T14:49:03.483Z,96702.44
2022-12-18T14:51:31.793Z,96692.13
2022-12-18T14:54:02.974Z,96689.13
2022-12-18T14:56:31.255Z,96708.00
2022-12-18T14:58:59.289Z,96707.53
2022-12-18T15:01:39.138Z,96714.53
2022-12-18T15:04:21.091Z,96724.00
2022-12-18T15:06:48.222Z,96749.16
2022-12-18T15:09:27.452Z,96752.03
2022-12-18T15:11:58.727Z,96725.44
2022-12-18T15:14:31.095Z,96756.06
2022-12-18T15:16:59.936Z,96769.00
2022-12-18T15:19:37.690Z,96770.06
2022-12-18T15:22:06.608Z,96774.00
2022-12-18T15:24:33.713Z,96792.31
2022-12-18T15:27:01.054Z,96801.59
2022-12-18T15:29:28.068Z,96802.63
2022-12-18T15:32:19.060Z,96814.00
2022-12-18T15:34:45.583Z,96833.56
2022-12-18T15:37:12.187Z,96843.34
2022-12-18T15:39:38.699Z,96831.66
2022-12-18T15:42:23.905Z,96854.84
2022-12-18T15:44:50.822Z,96865.25
2022-12-18T15:47:17.375Z,96866.06
2022-12-18T15:49:43.890Z,96865.69
2022-12-18T15:52:12.936Z,96895.19
2022-12-18T15:54:57.926Z,96902.91
2022-12-18T15:57:24.431Z,96905.91
2022-12-18T15:59:51.747Z,96917.72
2022-12-18T16:02:19.307Z,96929.50
2022-12-18T16:04:46.926Z,96946.06
2022-12-18T16:07:15.113Z,96945.59
2022-12-18T16:09:44.265Z,96958.63
2022-12-18T16:12:19.162Z,96971.53
2022-12-18T16:14:46.057Z,96984.59
2022-12-18T16:17:13.492Z,96977.56
2022-12-18T16:19:41.085Z,96986.19
2022-12-18T16:22:17.323Z,97016.09
2022-12-18T16:24:44.457Z,97027.91
2022-12-18T16:27:11.026Z,97014.38
2022-12-18T16:29:37.650Z,97043.03
2022-12-18T16:32:04.158Z,97068.97
2022-12-18T16:34:35.241Z,97070.72
2022-12-18T16:37:05.845Z,97072.97
2022-12-18T16:39:34.285Z,97096.84
2022-12-18T16:42:01.973Z,97116.78
2022-12-18T16:44:32.317Z,97127.31
2022-12-18T16:47:02.739Z,97130.19
2022-12-18T16:49:29.702Z,97141.66
2022-12-18T16:51:56.246Z,97162.22
2022-12-18T16:54:22.964Z,97162.06
2022-12-18T16:56:50.974Z,97156.16
2022-12-18T16:59:17.484Z,97179.69
2022-12-18T17:01:44.653Z,97178.81
2022-12-18T17:04:11.328Z,97207.03
2022-12-18T17:06:42.231Z,97202.00
2022-12-18T17:09:11.187Z,97217.06
2022-12-18T17:11:37.886Z,97204.44
2022-12-18T17:14:08.766Z,97200.66
2022-12-18T17:16:35.848Z,97213.78
2022-12-18T17:19:04.020Z,97206.25
2022-12-18T17:21:30.641Z,97205.03
2022-12-18T17:23:59.656Z,97205.63
2022-12-18T17:26:26.202Z,97195.81
2022-12-18T17:28:52.771Z,97203.09
2022-12-18T17:31:20.570Z,97233.94
2022-12-18T17:33:48.900Z,97238.94
2022-12-18T17:36:15.880Z,97247.16
2022-12-18T17:38:42.603Z,97264.50
2022-12-18T17:41:09.996Z,97274.88
2022-12-18T17:43:37.165Z,97283.31
2022-12-18T17:46:04.346Z,97278.91
2022-12-18T17:48:33.643Z,97287.22
2022-12-18T17:51:04.146Z,97326.16
2022-12-18T17:53:31.286Z,97354.16
2022-12-18T17:55:58.376Z,97365.66
2022-12-18T17:58:25.262Z,97378.09
2022-12-18T18:00:51.818Z,97387.59
2022-12-18T18:03:18.475Z,97382.47
2022-12-18T18:05:45.258Z,97381.00
2022-12-18T18:08:11.914Z,97409.41
2022-12-18T18:10:39.458Z,97427.38
2022-12-18T18:13:42.065Z,97427.84
2022-12-18T18:16:12.995Z,97429.31
2022-12-18T18:18:41.563Z,97423.19
2022-12-18T18:21:08.873Z,97414.03
2022-12-18T18:23:35.998Z,97446.94
2022-12-18T18:26:06.756Z,97466.84
2022-12-18T18:28:33.871Z,97464.75
2022-12-18T18:31:07.742Z,97480.09
2022-12-18T18:33:34.283Z,97488.88
2022-12-18T18:36:00.735Z,97480.56
2022-12-18T18:38:28.388Z,97505.13
2022-12-18T18:40:58.383Z,97507.34
2022-12-18T18:43:24.869Z,97526.47
2022-12-18T18:45:55.156Z,97522.22
2022-12-18T18:48:21.631Z,97512.91
2022-12-18T18:51:21.757Z,97555.13
2022-12-18T18:53:49.262Z,97599.00
2022-12-18T18:56:45.436Z,97611.38
2022-12-18T18:59:03.675Z,97635.97
2022-12-18T19:01:30.314Z,97642.19
2022-12-18T19:03:56.875Z,97667.50
2022-12-18T19:06:25.105Z,97693.63
2022-12-18T19:08:52.788Z,97696.91
2022-12-18T19:11:38.187Z,97689.97
2022-12-18T19:14:05.867Z,97706.00
2022-12-18T19:16:33.625Z,97707.97
2022-12-18T19:19:02.227Z,97737.91
2022-12-18T19:21:31.152Z,97743.66
2022-12-18T19:24:01.054Z,97731.75
2022-12-18T19:26:28.665Z,97714.00
2022-12-18T19:29:00.456Z,97692.25
2022-12-18T19:31:31.798Z,97690.56
2022-12-18T19:34:02.219Z,97727.50
2022-12-18T19:36:29.716Z,97742.53
2022-12-18T19:38:57.378Z,97754.22
2022-12-18T19:41:25.643Z,97755.72
2022-12-18T19:43:55.726Z,97768.47
2022-12-18T19:46:23.815Z,97772.84
2022-12-18T19:48:50.764Z,97788.91
2022-12-18T19:51:18.770Z,97809.25
2022-12-18T19:53:45.545Z,97808.94
2022-12-18T19:56:13.447Z,97787.19
2022-12-18T19:58:40.753Z,97807.47
2022-12-18T20:01:08.172Z,97828.34
2022-12-18T20:03:36.389Z,97832.41
2022-12-18T20:06:09.066Z,97851.81
2022-12-18T20:08:35.648Z,97860.31
2022-12-18T20:11:02.113Z,97870.88
2022-12-18T20:13:28.588Z,97909.97
2022-12-18T20:15:56.832Z,97931.91
2022-12-18T20:18:23.310Z,97952.16
2022-12-18T20:20:54.447Z,97964.44
2022-12-18T20:23:23.217Z,97972.31
2022-12-18T20:25:52.355Z,97996.38
2022-12-18T20:28:19.074Z,98011.94
2022-12-18T20:30:45.848Z,98022.34
2022-12-18T20:33:12.409Z,98020.00
2022-12-18T20:35:38.902Z,98019.41
2022-12-18T20:38:06.575Z,98034.84
2022-12-18T20:40:33.259Z,98047.19
2022-12-18T20:43:00.124Z,98065.84
2022-12-18T20:45:28.422Z,98057.31
2022-12-18T20:47:57.462Z,98059.47
2022-12-18T20:50:23.996Z,98052.47
2022-12-18T20:52:50.999Z,98076.00
2022-12-18T20:55:17.495Z,98078.13
2022-12-18T20:57:43.994Z,98076.03
2022-12-18T21:00:11.270Z,98088.03
2022-12-18T21:02:39.107Z,98081.84
2022-12-18T21:05:05.834Z,98110.38
2022-12-18T21:07:32.297Z,98108.28
2022-12-18T21:09:58.771Z,98116.53
2022-12-18T21:12:40.310Z,98124.81
2022-12-18T21:15:14.152Z,98120.28
2022-12-18T21:17:44.996Z,98124.00
2022-12-18T21:20:17.513Z,98148.78
2022-12-18T21:22:47.305Z,98148.53
2022-12-18T21:25:13.880Z,98146.66
2022-12-18T21:27:40.317Z,98150.94
2022-12-18T21:30:07.162Z,98140.00
2022-12-18T21:32:33.779Z,98156.53
2022-12-18T21:35:00.529Z,98165.59
2022-12-18T21:37:27.098Z,98170.09
2022-12-18T21:39:53.540Z,98163.44
2022-12-18T21:42:38.942Z,98148.00
2022-12-18T21:45:05.539Z,98150.66
2022-12-18T21:47:32.036Z,98177.31
2022-12-18T21:50:00.670Z,98161.84
2022-12-18T21:52:32.241Z,98153.31
2022-12-18T21:55:04.764Z,98169.81
2022-12-18T21:57:34.716Z,98149.06
2022-12-18T22:00:02.218Z,98162.09
2022-12-18T22:02:29.234Z,98175.16
2022-12-18T22:04:55.922Z,98182.06
2022-12-18T22:07:23.073Z,98181.53
2022-12-18T22:09:49.756Z,98197.78
2022-12-18T22:12:35.495Z,98183.69
2022-12-18T22:15:04.412Z,98225.75
2022-12-18T22:17:31.098Z,98228.94
2022-12-18T22:19:58.370Z,98254.50
2022-12-18T22:22:24.912Z,98260.34
2022-12-18T22:24:52.103Z,98263.34
2022-12-18T22:27:18.584Z,98273.44
2022-12-18T22:30:03.679Z,98288.06
2022-12-18T22:32:31.708Z,98206.03
2022-12-18T22:35:04.521Z,98111.47
2022-12-18T22:37:33.842Z,98055.03
2022-12-18T22:40:03.092Z,98033.44
2022-12-18T22:42:30.863Z,97994.06
2022-12-18T22:44:57.330Z,97959.47
2022-12-18T22:47:29.768Z,97930.47
2022-12-18T22:49:57.477Z,97905.72
2022-12-18T22:52:25.963Z,97882.28
2022-12-18T22:54:53.130Z,97882.84
2022-12-18T22:57:20.348Z,97840.28
2022-12-18T22:59:46.785Z,97831.75
2022-12-18T23:02:13.371Z,97854.38
2022-12-18T23:04:40.566Z,97852.50
2022-12-18T23:07:07.151Z,97847.69
2022-12-18T23:09:33.723Z,97855.97
2022-12-18T23:12:00.363Z,97855.69
2022-12-18T23:14:27.638Z,97853.56
2022-12-18T23:16:56.043Z,97854.13
2022-12-18T23:19:23.965Z,97864.22
2022-12-18T23:21:50.893Z,97848.25
2022-12-18T23:24:18.030Z,97871.66
2022-12-18T23:26:44.494Z,97889.72
2022-12-18T23:29:12.692Z,97883.31
2022-12-18T23:31:39.781Z,97868.44
2022-12-18T23:34:06.867Z,97873.72
2022-12-18T23:36:45.284Z,97841.34
2022-12-18T23:39:28.662Z,97881.19
2022-12-18T23:41:55.917Z,97905.53
2022-12-18T23:44:22.481Z,97863.34
2022-12-18T23:46:49.086Z,97842.88
2022-12-18T23:49:15.717Z,97824.81
2022-12-18T23:51:42.221Z,97843.94
2022-12-18T23:54:12.023Z,97857.78
2022-12-18T23:56:40.598Z,97906.97
2022-12-18T23:59:07.178Z,97895.56
